RYR90TC LOWW-EDDK
Flight info
| Callsign | RYR90TC |
|---|---|
| Flight time | N/A |
| Altitude | 36000 |
| Route | BUWUT1D/34 BUWUT DCT DITIS DCT RAPET T843 VELIS DCT MASEK T841 ERNEP |
| Aircraft | B738/M-SDE2E3FGHIRWXY/LB1 |
Departure
| Time | 2026-04-26 18:56 |
|---|---|
| Airport | Vienna International Airport (LOWW) |
Arrival
| Time | N/A |
|---|---|
| Airport | Cologne Bonn Airport (EDDK) |
| Time | Latitude | Longitude | Altitude | Speed | Heading |
|---|---|---|---|---|---|
| 2026-04-26 18:18 | 48.12085 | 16.55477 | 0 ft | 0 kts | 295° |
| 2026-04-26 18:48 | 48.12086 | 16.55474 | 609 ft | 1 kts | 295° |
| 2026-04-26 18:49 | 48.12092 | 16.55455 | 623 ft | 2 kts | 295° |
| 2026-04-26 18:49 | 48.12097 | 16.55433 | 613 ft | 2 kts | 279° |
| 2026-04-26 18:49 | 48.12089 | 16.55410 | 609 ft | 2 kts | 232° |
| 2026-04-26 18:49 | 48.12075 | 16.55394 | 612 ft | 3 kts | 212° |
| 2026-04-26 18:50 | 48.12036 | 16.55365 | 608 ft | 10 kts | 206° |
| 2026-04-26 18:50 | 48.11967 | 16.55315 | 620 ft | 10 kts | 202° |
| 2026-04-26 18:50 | 48.11913 | 16.55359 | 611 ft | 10 kts | 118° |
| 2026-04-26 18:50 | 48.11869 | 16.55427 | 613 ft | 9 kts | 169° |
| 2026-04-26 18:51 | 48.11806 | 16.55455 | 612 ft | 12 kts | 134° |
| 2026-04-26 18:51 | 48.11759 | 16.55586 | 615 ft | 15 kts | 116° |
| 2026-04-26 18:51 | 48.11713 | 16.55728 | 611 ft | 16 kts | 116° |
| 2026-04-26 18:51 | 48.11658 | 16.55897 | 620 ft | 19 kts | 116° |
| 2026-04-26 18:52 | 48.11600 | 16.56076 | 619 ft | 19 kts | 116° |
| 2026-04-26 18:52 | 48.11533 | 16.56281 | 612 ft | 24 kts | 116° |
| 2026-04-26 18:52 | 48.11462 | 16.56499 | 611 ft | 23 kts | 116° |
| 2026-04-26 18:52 | 48.11393 | 16.56710 | 613 ft | 22 kts | 116° |
| 2026-04-26 18:53 | 48.11327 | 16.56914 | 616 ft | 22 kts | 116° |
| 2026-04-26 18:53 | 48.11262 | 16.57113 | 616 ft | 21 kts | 116° |
| 2026-04-26 18:53 | 48.11199 | 16.57305 | 609 ft | 20 kts | 116° |
| 2026-04-26 18:53 | 48.11138 | 16.57492 | 614 ft | 20 kts | 116° |
| 2026-04-26 18:54 | 48.11094 | 16.57622 | 619 ft | 12 kts | 128° |
| 2026-04-26 18:54 | 48.11018 | 16.57630 | 609 ft | 12 kts | 206° |
| 2026-04-26 18:54 | 48.10947 | 16.57575 | 614 ft | 10 kts | 207° |
| 2026-04-26 18:54 | 48.10921 | 16.57521 | 611 ft | 7 kts | 276° |
| 2026-04-26 18:55 | 48.10926 | 16.57499 | 617 ft | 0 kts | 295° |
| 2026-04-26 18:55 | 48.10935 | 16.57472 | 612 ft | 19 kts | 295° |
| 2026-04-26 18:55 | 48.11109 | 16.56937 | 621 ft | 94 kts | 296° |
| 2026-04-26 18:55 | 48.11497 | 16.55762 | 624 ft | 153 kts | 298° |
| 2026-04-26 18:56 | 48.11978 | 16.54322 | 1295 ft | 155 kts | 299° |
| 2026-04-26 18:56 | 48.12396 | 16.52785 | 1915 ft | 174 kts | 283° |
| 2026-04-26 18:56 | 48.12229 | 16.50910 | 2279 ft | 210 kts | 255° |
| 2026-04-26 18:56 | 48.11801 | 16.48747 | 2804 ft | 221 kts | 257° |
| 2026-04-26 18:57 | 48.11602 | 16.46496 | 3431 ft | 224 kts | 278° |
| 2026-04-26 18:57 | 48.11753 | 16.44882 | 3624 ft | 242 kts | 282° |
| 2026-04-26 18:57 | 48.12146 | 16.41432 | 4413 ft | 257 kts | 282° |
| 2026-04-26 18:57 | 48.12444 | 16.38773 | 4851 ft | 259 kts | 282° |
| 2026-04-26 18:58 | 48.12737 | 16.36100 | 4986 ft | 260 kts | 281° |
| 2026-04-26 18:58 | 48.13027 | 16.33406 | 5235 ft | 264 kts | 281° |
| 2026-04-26 18:58 | 48.13310 | 16.30719 | 6335 ft | 255 kts | 281° |
| 2026-04-26 18:58 | 48.13578 | 16.28146 | 7509 ft | 249 kts | 280° |
| 2026-04-26 18:59 | 48.13849 | 16.25550 | 8291 ft | 256 kts | 280° |
| 2026-04-26 18:59 | 48.14178 | 16.22915 | 9097 ft | 260 kts | 290° |
| 2026-04-26 18:59 | 48.15110 | 16.20592 | 9977 ft | 263 kts | 310° |
| 2026-04-26 18:59 | 48.16400 | 16.18584 | 10570 ft | 278 kts | 314° |
| 2026-04-26 19:00 | 48.17865 | 16.16480 | 10751 ft | 304 kts | 315° |
| 2026-04-26 19:00 | 48.19453 | 16.14246 | 11205 ft | 320 kts | 316° |
| 2026-04-26 19:00 | 48.21091 | 16.11941 | 11920 ft | 325 kts | 316° |
| 2026-04-26 19:00 | 48.22745 | 16.09606 | 12720 ft | 328 kts | 316° |
| 2026-04-26 19:01 | 48.24415 | 16.07235 | 13485 ft | 333 kts | 316° |
| 2026-04-26 19:01 | 48.26105 | 16.04824 | 14236 ft | 337 kts | 316° |
| 2026-04-26 19:01 | 48.27811 | 16.02381 | 14929 ft | 341 kts | 316° |
| 2026-04-26 19:01 | 48.29534 | 15.99909 | 15629 ft | 345 kts | 316° |
| 2026-04-26 19:02 | 48.31276 | 15.97403 | 16319 ft | 348 kts | 316° |
| 2026-04-26 19:02 | 48.33032 | 15.94872 | 17001 ft | 352 kts | 315° |
| 2026-04-26 19:02 | 48.34808 | 15.92309 | 17668 ft | 356 kts | 315° |
| 2026-04-26 19:02 | 48.35995 | 15.90595 | 18106 ft | 359 kts | 315° |
| 2026-04-26 19:03 | 48.38417 | 15.87091 | 18920 ft | 364 kts | 315° |
| 2026-04-26 19:03 | 48.40251 | 15.84436 | 19499 ft | 367 kts | 315° |
| 2026-04-26 19:03 | 48.42096 | 15.81762 | 20089 ft | 370 kts | 315° |
| 2026-04-26 19:03 | 48.43960 | 15.79056 | 20642 ft | 374 kts | 315° |
| 2026-04-26 19:04 | 48.45843 | 15.76320 | 21183 ft | 378 kts | 315° |
| 2026-04-26 19:04 | 48.47741 | 15.73559 | 21737 ft | 382 kts | 314° |